sensor_id;sensor_type;location;lat;lon;timestamp;pressure;altitude;pressure_sealevel;temperature;humidity
64388;BME280;50709;52.648;4.764;2022-11-03T00:01:49;101198.84;;;18.40;53.80
64388;BME280;50709;52.648;4.764;2022-11-03T00:04:21;101204.34;;;18.31;54.25
64388;BME280;50709;52.648;4.764;2022-11-03T00:06:49;101185.97;;;18.26;54.31
64388;BME280;50709;52.648;4.764;2022-11-03T00:09:16;101164.88;;;18.23;53.76
64388;BME280;50709;52.648;4.764;2022-11-03T00:11:44;101175.44;;;18.23;54.72
64388;BME280;50709;52.648;4.764;2022-11-03T00:14:10;101171.22;;;18.16;53.69
64388;BME280;50709;52.648;4.764;2022-11-03T00:16:37;101185.16;;;18.23;54.26
64388;BME280;50709;52.648;4.764;2022-11-03T00:19:05;101173.75;;;18.22;53.84
64388;BME280;50709;52.648;4.764;2022-11-03T00:21:30;101168.63;;;18.14;54.60
64388;BME280;50709;52.648;4.764;2022-11-03T00:23:56;101179.13;;;18.18;54.50
64388;BME280;50709;52.648;4.764;2022-11-03T00:26:23;101148.56;;;18.06;54.67
64388;BME280;50709;52.648;4.764;2022-11-03T00:28:53;101175.56;;;18.19;53.82
64388;BME280;50709;52.648;4.764;2022-11-03T00:31:22;101171.41;;;18.08;54.17
64388;BME280;50709;52.648;4.764;2022-11-03T00:33:48;101160.88;;;18.07;54.57
64388;BME280;50709;52.648;4.764;2022-11-03T00:36:20;101162.72;;;18.05;54.09
64388;BME280;50709;52.648;4.764;2022-11-03T00:38:46;101148.00;;;17.93;54.07
64388;BME280;50709;52.648;4.764;2022-11-03T00:41:12;101154.19;;;17.92;54.04
64388;BME280;50709;52.648;4.764;2022-11-03T00:43:38;101121.69;;;17.87;54.78
64388;BME280;50709;52.648;4.764;2022-11-03T00:46:05;101147.78;;;18.02;54.40
64388;BME280;50709;52.648;4.764;2022-11-03T00:48:31;101126.75;;;17.97;54.66
64388;BME280;50709;52.648;4.764;2022-11-03T00:51:23;101126.91;;;17.90;54.50
64388;BME280;50709;52.648;4.764;2022-11-03T00:53:50;101128.75;;;17.86;53.96
64388;BME280;50709;52.648;4.764;2022-11-03T00:56:23;101091.97;;;17.77;54.76
64388;BME280;50709;52.648;4.764;2022-11-03T00:58:51;101124.09;;;17.97;54.45
64388;BME280;50709;52.648;4.764;2022-11-03T01:01:22;101125.75;;;18.02;54.82
64388;BME280;50709;52.648;4.764;2022-11-03T01:03:50;101128.53;;;17.97;54.47
64388;BME280;50709;52.648;4.764;2022-11-03T01:06:36;101110.25;;;17.86;54.60
64388;BME280;50709;52.648;4.764;2022-11-03T01:09:19;101115.41;;;17.94;54.97
64388;BME280;50709;52.648;4.764;2022-11-03T01:11:52;101118.09;;;17.92;54.74
64388;BME280;50709;52.648;4.764;2022-11-03T01:14:42;101102.34;;;17.86;54.43
64388;BME280;50709;52.648;4.764;2022-11-03T01:17:13;101103.16;;;17.88;54.73
64388;BME280;50709;52.648;4.764;2022-11-03T01:19:38;101077.88;;;17.78;54.70
64388;BME280;50709;52.648;4.764;2022-11-03T01:22:04;101098.13;;;17.77;54.76
64388;BME280;50709;52.648;4.764;2022-11-03T01:24:30;101102.41;;;17.83;55.18
64388;BME280;50709;52.648;4.764;2022-11-03T01:26:55;101064.84;;;17.70;54.97
64388;BME280;50709;52.648;4.764;2022-11-03T01:29:21;101101.66;;;17.78;54.77
64388;BME280;50709;52.648;4.764;2022-11-03T01:31:48;101091.00;;;17.81;54.85
64388;BME280;50709;52.648;4.764;2022-11-03T01:34:15;101090.91;;;17.84;54.64
64388;BME280;50709;52.648;4.764;2022-11-03T01:36:41;101090.78;;;17.90;54.97
64388;BME280;50709;52.648;4.764;2022-11-03T01:39:09;101083.13;;;17.79;54.29
64388;BME280;50709;52.648;4.764;2022-11-03T01:41:35;101085.00;;;17.74;55.01
64388;BME280;50709;52.648;4.764;2022-11-03T01:51:56;101070.88;;;17.75;55.14
64388;BME280;50709;52.648;4.764;2022-11-03T01:54:26;101075.16;;;17.81;55.30
64388;BME280;50709;52.648;4.764;2022-11-03T01:56:53;101075.31;;;17.75;55.43
64388;BME280;50709;52.648;4.764;2022-11-03T01:59:40;101048.19;;;17.68;55.48
64388;BME280;50709;52.648;4.764;2022-11-03T02:02:06;101035.38;;;17.51;55.16
64388;BME280;50709;52.648;4.764;2022-11-03T02:04:34;101052.63;;;17.66;55.41
64388;BME280;50709;52.648;4.764;2022-11-03T02:07:08;101063.91;;;17.73;55.81
64388;BME280;50709;52.648;4.764;2022-11-03T02:09:35;101036.09;;;17.58;55.08
64388;BME280;50709;52.648;4.764;2022-11-03T02:12:02;101053.50;;;17.65;55.91
64388;BME280;50709;52.648;4.764;2022-11-03T02:14:31;101044.69;;;17.66;55.95
64388;BME280;50709;52.648;4.764;2022-11-03T02:17:00;101046.28;;;17.73;55.73
64388;BME280;50709;52.648;4.764;2022-11-03T02:19:34;101048.91;;;17.73;55.86
64388;BME280;50709;52.648;4.764;2022-11-03T02:27:48;101038.50;;;17.67;55.89
64388;BME280;50709;52.648;4.764;2022-11-03T02:30:13;101006.41;;;17.48;55.84
64388;BME280;50709;52.648;4.764;2022-11-03T02:35:22;101030.47;;;17.72;56.35
64388;BME280;50709;52.648;4.764;2022-11-03T02:38:12;101022.63;;;17.69;56.21
64388;BME280;50709;52.648;4.764;2022-11-03T02:40:45;101003.38;;;17.63;56.16
64388;BME280;50709;52.648;4.764;2022-11-03T02:43:32;101008.63;;;17.65;56.78
64388;BME280;50709;52.648;4.764;2022-11-03T02:46:00;101013.00;;;17.66;56.36
64388;BME280;50709;52.648;4.764;2022-11-03T02:48:48;100994.50;;;17.66;56.28
64388;BME280;50709;52.648;4.764;2022-11-03T02:51:15;100993.69;;;17.64;56.12
64388;BME280;50709;52.648;4.764;2022-11-03T02:53:46;100981.66;;;17.52;56.32
64388;BME280;50709;52.648;4.764;2022-11-03T02:56:19;100955.44;;;17.44;56.21
64388;BME280;50709;52.648;4.764;2022-11-03T02:59:03;100981.63;;;17.54;56.42
64388;BME280;50709;52.648;4.764;2022-11-03T03:01:36;100973.75;;;17.52;56.75
64388;BME280;50709;52.648;4.764;2022-11-03T03:04:28;100974.59;;;17.53;56.64
64388;BME280;50709;52.648;4.764;2022-11-03T03:07:01;100968.50;;;17.49;56.76
64388;BME280;50709;52.648;4.764;2022-11-03T03:09:33;100954.72;;;17.38;56.85
64388;BME280;50709;52.648;4.764;2022-11-03T03:12:00;100946.66;;;17.42;56.59
64388;BME280;50709;52.648;4.764;2022-11-03T03:14:34;100940.81;;;17.31;56.49
64388;BME280;50709;52.648;4.764;2022-11-03T03:17:04;100959.09;;;17.39;57.07
64388;BME280;50709;52.648;4.764;2022-11-03T03:19:57;100951.22;;;17.37;57.27
64388;BME280;50709;52.648;4.764;2022-11-03T03:22:37;100958.47;;;17.29;56.76
64388;BME280;50709;52.648;4.764;2022-11-03T03:25:14;100939.03;;;17.31;57.15
64388;BME280;50709;52.648;4.764;2022-11-03T03:27:46;100942.19;;;17.46;57.16
64388;BME280;50709;52.648;4.764;2022-11-03T03:30:13;100916.28;;;17.26;57.30
64388;BME280;50709;52.648;4.764;2022-11-03T03:32:43;100941.34;;;17.45;56.98
64388;BME280;50709;52.648;4.764;2022-11-03T03:35:13;100943.91;;;17.48;57.08
64388;BME280;50709;52.648;4.764;2022-11-03T03:37:46;100909.94;;;17.35;57.23
64388;BME280;50709;52.648;4.764;2022-11-03T03:40:17;100937.94;;;17.40;57.06
64388;BME280;50709;52.648;4.764;2022-11-03T03:43:07;100943.19;;;17.42;56.80
64388;BME280;50709;52.648;4.764;2022-11-03T03:45:34;100929.25;;;17.35;57.34
64388;BME280;50709;52.648;4.764;2022-11-03T03:48:01;100927.69;;;17.28;57.38
64388;BME280;50709;52.648;4.764;2022-11-03T03:50:30;100905.09;;;17.16;57.21
64388;BME280;50709;52.648;4.764;2022-11-03T03:53:03;100944.28;;;17.31;57.06
64388;BME280;50709;52.648;4.764;2022-11-03T03:55:38;100936.38;;;17.33;56.93
64388;BME280;50709;52.648;4.764;2022-11-03T03:58:04;100934.63;;;17.32;57.10
64388;BME280;50709;52.648;4.764;2022-11-03T04:00:30;100916.34;;;17.24;57.27
64388;BME280;50709;52.648;4.764;2022-11-03T04:02:57;100916.56;;;17.15;57.41
64388;BME280;50709;52.648;4.764;2022-11-03T04:05:23;100930.28;;;17.29;57.67
64388;BME280;50709;52.648;4.764;2022-11-03T04:07:48;100932.16;;;17.24;57.50
64388;BME280;50709;52.648;4.764;2022-11-03T04:10:15;100926.25;;;17.14;57.97
64388;BME280;50709;52.648;4.764;2022-11-03T04:12:42;100912.06;;;17.19;57.13
64388;BME280;50709;52.648;4.764;2022-11-03T04:15:25;100904.97;;;17.22;57.90
64388;BME280;50709;52.648;4.764;2022-11-03T04:18:10;100890.31;;;17.09;57.65
64388;BME280;50709;52.648;4.764;2022-11-03T04:20:54;100909.53;;;17.14;57.18
64388;BME280;50709;52.648;4.764;2022-11-03T04:23:37;100913.88;;;17.17;57.84
64388;BME280;50709;52.648;4.764;2022-11-03T04:26:43;100905.06;;;17.18;57.69
64388;BME280;50709;52.648;4.764;2022-11-03T04:29:09;100893.69;;;17.14;57.71
64388;BME280;50709;52.648;4.764;2022-11-03T04:31:35;100883.44;;;17.02;57.95
64388;BME280;50709;52.648;4.764;2022-11-03T04:34:03;100884.16;;;17.08;57.77
64388;BME280;50709;52.648;4.764;2022-11-03T04:36:30;100874.81;;;16.95;57.83
64388;BME280;50709;52.648;4.764;2022-11-03T04:39:18;100885.88;;;17.11;57.54
64388;BME280;50709;52.648;4.764;2022-11-03T04:41:45;100892.03;;;17.10;57.74
64388;BME280;50709;52.648;4.764;2022-11-03T04:44:13;100889.53;;;17.05;57.63
64388;BME280;50709;52.648;4.764;2022-11-03T04:46:40;100903.75;;;17.00;57.62
64388;BME280;50709;52.648;4.764;2022-11-03T04:49:13;100893.22;;;16.98;58.04
64388;BME280;50709;52.648;4.764;2022-11-03T04:52:00;100893.00;;;17.07;57.51
64388;BME280;50709;52.648;4.764;2022-11-03T04:54:26;100883.41;;;17.03;57.79
64388;BME280;50709;52.648;4.764;2022-11-03T04:56:53;100870.28;;;17.00;57.76
64388;BME280;50709;52.648;4.764;2022-11-03T04:59:18;100877.09;;;17.10;57.57
64388;BME280;50709;52.648;4.764;2022-11-03T05:01:44;100874.41;;;17.12;57.34
64388;BME280;50709;52.648;4.764;2022-11-03T05:04:29;100869.41;;;17.01;58.08
64388;BME280;50709;52.648;4.764;2022-11-03T05:07:28;100856.47;;;16.90;57.99
64388;BME280;50709;52.648;4.764;2022-11-03T05:09:56;100865.09;;;16.97;58.35
64388;BME280;50709;52.648;4.764;2022-11-03T05:12:22;100860.53;;;17.04;58.39
64388;BME280;50709;52.648;4.764;2022-11-03T05:14:48;100851.78;;;17.02;58.56
64388;BME280;50709;52.648;4.764;2022-11-03T05:17:31;100861.44;;;17.03;58.41
64388;BME280;50709;52.648;4.764;2022-11-03T05:19:59;100860.53;;;17.04;58.27
64388;BME280;50709;52.648;4.764;2022-11-03T05:22:29;100862.38;;;17.00;58.87
64388;BME280;50709;52.648;4.764;2022-11-03T05:24:59;100846.56;;;17.00;58.79
64388;BME280;50709;52.648;4.764;2022-11-03T05:27:25;100842.88;;;17.06;58.41
64388;BME280;50709;52.648;4.764;2022-11-03T05:29:52;100831.88;;;16.90;58.35
64388;BME280;50709;52.648;4.764;2022-11-03T05:32:22;100839.53;;;16.99;59.17
64388;BME280;50709;52.648;4.764;2022-11-03T05:34:50;100823.03;;;16.91;59.05
64388;BME280;50709;52.648;4.764;2022-11-03T05:37:46;100827.19;;;17.01;58.85
64388;BME280;50709;52.648;4.764;2022-11-03T05:40:22;100829.16;;;16.93;58.35
64388;BME280;50709;52.648;4.764;2022-11-03T05:42:55;100831.75;;;16.94;58.77
64388;BME280;50709;52.648;4.764;2022-11-03T05:45:24;100829.22;;;16.90;58.85
64388;BME280;50709;52.648;4.764;2022-11-03T05:47:53;100810.03;;;16.83;58.55
64388;BME280;50709;52.648;4.764;2022-11-03T05:50:27;100815.16;;;16.88;58.57
64388;BME280;50709;52.648;4.764;2022-11-03T05:53:00;100787.44;;;16.71;58.77
64388;BME280;50709;52.648;4.764;2022-11-03T05:55:32;100803.91;;;16.81;58.57
64388;BME280;50709;52.648;4.764;2022-11-03T05:58:23;100778.84;;;16.63;58.52
64388;BME280;50709;52.648;4.764;2022-11-03T06:00:50;100802.41;;;16.69;58.67
64388;BME280;50709;52.648;4.764;2022-11-03T06:03:18;100803.13;;;16.76;58.51
64388;BME280;50709;52.648;4.764;2022-11-03T06:05:45;100798.03;;;16.70;58.43
64388;BME280;50709;52.648;4.764;2022-11-03T06:08:18;100804.88;;;16.77;58.59
64388;BME280;50709;52.648;4.764;2022-11-03T06:10:48;100791.66;;;16.78;58.97
64388;BME280;50709;52.648;4.764;2022-11-03T06:13:20;100778.66;;;16.71;58.56
64388;BME280;50709;52.648;4.764;2022-11-03T06:16:35;100793.31;;;16.82;58.78
64388;BME280;50709;52.648;4.764;2022-11-03T06:19:19;100773.38;;;16.71;59.05
64388;BME280;50709;52.648;4.764;2022-11-03T06:21:46;100783.69;;;16.80;59.17
64388;BME280;50709;52.648;4.764;2022-11-03T06:24:13;100750.59;;;16.68;58.79
64388;BME280;50709;52.648;4.764;2022-11-03T06:26:41;100780.78;;;16.94;58.68
64388;BME280;50709;52.648;4.764;2022-11-03T06:29:13;100754.16;;;16.67;58.98
64388;BME280;50709;52.648;4.764;2022-11-03T06:31:39;100776.22;;;16.99;58.99
64388;BME280;50709;52.648;4.764;2022-11-03T06:34:30;100771.38;;;17.17;59.28
64388;BME280;50709;52.648;4.764;2022-11-03T06:37:04;100750.75;;;17.31;59.56
64388;BME280;50709;52.648;4.764;2022-11-03T06:39:34;100767.88;;;17.80;59.84
64388;BME280;50709;52.648;4.764;2022-11-03T06:42:12;100765.66;;;18.26;59.72
64388;BME280;50709;52.648;4.764;2022-11-03T06:44:47;100766.78;;;18.46;58.52
64388;BME280;50709;52.648;4.764;2022-11-03T06:47:25;100759.94;;;18.67;58.43
64388;BME280;50709;52.648;4.764;2022-11-03T06:49:58;100762.28;;;18.76;58.00
64388;BME280;50709;52.648;4.764;2022-11-03T06:52:46;100750.06;;;18.72;58.07
64388;BME280;50709;52.648;4.764;2022-11-03T06:55:22;100729.16;;;18.64;58.53
64388;BME280;50709;52.648;4.764;2022-11-03T06:57:54;100737.66;;;18.74;57.55
64388;BME280;50709;52.648;4.764;2022-11-03T07:00:25;100746.28;;;18.53;57.40
64388;BME280;50709;52.648;4.764;2022-11-03T07:06:34;100741.22;;;18.46;58.08
64388;BME280;50709;52.648;4.764;2022-11-03T07:09:01;100731.69;;;18.41;57.67
64388;BME280;50709;52.648;4.764;2022-11-03T07:11:30;100717.09;;;18.29;58.12
64388;BME280;50709;52.648;4.764;2022-11-03T07:14:08;100752.50;;;18.52;58.29
64388;BME280;50709;52.648;4.764;2022-11-03T07:16:42;100749.94;;;18.48;58.61
64388;BME280;50709;52.648;4.764;2022-11-03T07:19:35;100748.19;;;18.49;58.49
64388;BME280;50709;52.648;4.764;2022-11-03T07:22:22;100723.91;;;18.36;58.01
64388;BME280;50709;52.648;4.764;2022-11-03T07:25:13;100723.91;;;18.36;58.37
64388;BME280;50709;52.648;4.764;2022-11-03T07:27:41;100726.56;;;18.36;58.28
64388;BME280;50709;52.648;4.764;2022-11-03T07:30:11;100731.06;;;18.32;58.19
64388;BME280;50709;52.648;4.764;2022-11-03T07:32:38;100721.78;;;18.19;58.66
64388;BME280;50709;52.648;4.764;2022-11-03T07:37:44;100703.34;;;18.18;58.70
64388;BME280;50709;52.648;4.764;2022-11-03T07:40:27;100708.91;;;18.10;58.83
64388;BME280;50709;52.648;4.764;2022-11-03T07:42:57;100690.84;;;17.94;58.91
64388;BME280;50709;52.648;4.764;2022-11-03T07:45:39;100711.72;;;18.04;58.97
64388;BME280;50709;52.648;4.764;2022-11-03T07:50:49;100706.09;;;17.85;58.97
64388;BME280;50709;52.648;4.764;2022-11-03T07:53:19;100700.56;;;17.94;59.27
64388;BME280;50709;52.648;4.764;2022-11-03T07:55:46;100686.34;;;17.98;59.35
64388;BME280;50709;52.648;4.764;2022-11-03T07:58:20;100686.97;;;18.06;58.69
64388;BME280;50709;52.648;4.764;2022-11-03T08:00:46;100682.66;;;18.04;59.10
64388;BME280;50709;52.648;4.764;2022-11-03T08:03:26;100667.66;;;18.04;58.82
64388;BME280;50709;52.648;4.764;2022-11-03T08:05:53;100671.00;;;18.09;58.48
64388;BME280;50709;52.648;4.764;2022-11-03T08:08:18;100650.44;;;17.92;58.76
64388;BME280;50709;52.648;4.764;2022-11-03T08:10:43;100668.59;;;18.03;58.79
64388;BME280;50709;52.648;4.764;2022-11-03T08:13:09;100670.41;;;18.01;59.03
64388;BME280;50709;52.648;4.764;2022-11-03T08:15:37;100662.94;;;17.86;59.33
64388;BME280;50709;52.648;4.764;2022-11-03T08:18:02;100668.88;;;17.94;58.95
64388;BME280;50709;52.648;4.764;2022-11-03T08:20:27;100666.22;;;17.94;58.96
64388;BME280;50709;52.648;4.764;2022-11-03T08:22:52;100649.72;;;17.86;59.07
64388;BME280;50709;52.648;4.764;2022-11-03T08:25:18;100649.56;;;17.90;58.60
64388;BME280;50709;52.648;4.764;2022-11-03T08:27:43;100632.25;;;17.81;58.54
64388;BME280;50709;52.648;4.764;2022-11-03T08:30:09;100634.06;;;17.79;59.19
64388;BME280;50709;52.648;4.764;2022-11-03T08:32:34;100637.72;;;17.75;59.06
64388;BME280;50709;52.648;4.764;2022-11-03T08:35:00;100616.56;;;17.75;59.22
64388;BME280;50709;52.648;4.764;2022-11-03T08:37:25;100622.81;;;17.73;59.37
64388;BME280;50709;52.648;4.764;2022-11-03T08:39:50;100601.44;;;17.52;59.28
64388;BME280;50709;52.648;4.764;2022-11-03T08:42:15;100621.34;;;17.64;59.27
64388;BME280;50709;52.648;4.764;2022-11-03T08:44:41;100607.94;;;17.70;59.35
64388;BME280;50709;52.648;4.764;2022-11-03T08:47:06;100610.78;;;17.64;58.92
64388;BME280;50709;52.648;4.764;2022-11-03T08:49:32;100605.50;;;17.64;59.15
64388;BME280;50709;52.648;4.764;2022-11-03T08:51:57;100613.84;;;17.78;59.27
64388;BME280;50709;52.648;4.764;2022-11-03T08:54:22;100599.78;;;17.78;59.11
64388;BME280;50709;52.648;4.764;2022-11-03T08:56:47;100597.19;;;17.76;59.19
64388;BME280;50709;52.648;4.764;2022-11-03T08:59:13;100590.78;;;17.83;59.37
64388;BME280;50709;52.648;4.764;2022-11-03T09:01:38;100591.63;;;17.86;58.85
64388;BME280;50709;52.648;4.764;2022-11-03T09:04:04;100598.66;;;17.85;59.00
64388;BME280;50709;52.648;4.764;2022-11-03T09:06:29;100581.91;;;17.86;59.34
64388;BME280;50709;52.648;4.764;2022-11-03T09:08:54;100556.78;;;17.73;59.29
64388;BME280;50709;52.648;4.764;2022-11-03T09:11:20;100575.22;;;17.74;59.22
64388;BME280;50709;52.648;4.764;2022-11-03T09:13:45;100556.75;;;17.46;59.17
64388;BME280;50709;52.648;4.764;2022-11-03T09:16:10;100528.53;;;17.48;59.42
64388;BME280;50709;52.648;4.764;2022-11-03T09:18:36;100554.44;;;17.63;59.41
64388;BME280;50709;52.648;4.764;2022-11-03T09:21:01;100554.09;;;17.74;59.08
64388;BME280;50709;52.648;4.764;2022-11-03T09:23:26;100532.91;;;17.76;59.21
64388;BME280;50709;52.648;4.764;2022-11-03T09:25:52;100522.41;;;17.74;59.09
64388;BME280;50709;52.648;4.764;2022-11-03T09:28:17;100502.50;;;17.64;59.02
64388;BME280;50709;52.648;4.764;2022-11-03T09:30:42;100503.97;;;17.73;59.22
64388;BME280;50709;52.648;4.764;2022-11-03T09:33:08;100524.09;;;17.77;59.19
64388;BME280;50709;52.648;4.764;2022-11-03T09:35:33;100530.19;;;17.79;59.17
64388;BME280;50709;52.648;4.764;2022-11-03T09:37:58;100509.84;;;17.81;59.23
64388;BME280;50709;52.648;4.764;2022-11-03T09:40:24;100504.78;;;17.75;59.54
64388;BME280;50709;52.648;4.764;2022-11-03T09:42:49;100511.53;;;17.83;59.72
64388;BME280;50709;52.648;4.764;2022-11-03T09:45:15;100504.97;;;17.69;59.66
64388;BME280;50709;52.648;4.764;2022-11-03T09:47:41;100491.94;;;17.64;59.19
64388;BME280;50709;52.648;4.764;2022-11-03T09:50:17;100513.50;;;17.77;59.39
64388;BME280;50709;52.648;4.764;2022-11-03T09:52:45;100475.16;;;17.65;59.61
64388;BME280;50709;52.648;4.764;2022-11-03T09:55:22;100496.00;;;17.74;59.48
64388;BME280;50709;52.648;4.764;2022-11-03T09:57:58;100491.31;;;17.82;59.55
64388;BME280;50709;52.648;4.764;2022-11-03T10:00:24;100472.44;;;17.68;59.28
64388;BME280;50709;52.648;4.764;2022-11-03T10:02:51;100475.81;;;17.72;59.25
64388;BME280;50709;52.648;4.764;2022-11-03T10:05:21;100489.38;;;17.88;58.99
64388;BME280;50709;52.648;4.764;2022-11-03T10:07:47;100498.13;;;17.90;59.30
64388;BME280;50709;52.648;4.764;2022-11-03T10:10:16;100476.00;;;17.94;59.14
64388;BME280;50709;52.648;4.764;2022-11-03T10:12:42;100488.13;;;17.99;58.99
64388;BME280;50709;52.648;4.764;2022-11-03T10:15:16;100479.19;;;18.04;58.98
64388;BME280;50709;52.648;4.764;2022-11-03T10:17:43;100469.31;;;18.09;59.15
64388;BME280;50709;52.648;4.764;2022-11-03T10:20:11;100468.94;;;18.20;59.05
64388;BME280;50709;52.648;4.764;2022-11-03T10:22:37;100462.84;;;18.18;58.99
64388;BME280;50709;52.648;4.764;2022-11-03T10:25:28;100466.06;;;18.26;59.15
64388;BME280;50709;52.648;4.764;2022-11-03T10:28:11;100453.81;;;18.23;58.85
64388;BME280;50709;52.648;4.764;2022-11-03T10:30:53;100461.47;;;18.31;58.77
64388;BME280;50709;52.648;4.764;2022-11-03T10:33:35;100449.25;;;18.28;58.59
64388;BME280;50709;52.648;4.764;2022-11-03T10:36:03;100442.78;;;18.12;58.78
64388;BME280;50709;52.648;4.764;2022-11-03T10:38:32;100448.13;;;18.10;59.15
64388;BME280;50709;52.648;4.764;2022-11-03T10:41:28;100444.78;;;18.05;58.66
64388;BME280;50709;52.648;4.764;2022-11-03T10:46:30;100398.50;;;17.93;58.81
64388;BME280;50709;52.648;4.764;2022-11-03T10:49:13;100391.47;;;17.94;58.81
64388;BME280;50709;52.648;4.764;2022-11-03T10:51:41;100389.75;;;17.91;58.84
64388;BME280;50709;52.648;4.764;2022-11-03T10:54:11;100368.53;;;17.94;58.71
64388;BME280;50709;52.648;4.764;2022-11-03T10:56:39;100395.09;;;18.15;58.84
64388;BME280;50709;52.648;4.764;2022-11-03T10:59:05;100388.13;;;18.12;58.55
64388;BME280;50709;52.648;4.764;2022-11-03T11:01:30;100360.34;;;18.02;58.44
64388;BME280;50709;52.648;4.764;2022-11-03T11:03:56;100379.81;;;18.23;58.38
64388;BME280;50709;52.648;4.764;2022-11-03T11:06:27;100389.19;;;18.32;58.50
64388;BME280;50709;52.648;4.764;2022-11-03T11:08:58;100394.09;;;18.43;58.51
64388;BME280;50709;52.648;4.764;2022-11-03T11:11:24;100378.63;;;18.32;58.00
64388;BME280;50709;52.648;4.764;2022-11-03T11:16:52;100363.75;;;18.29;57.87
64388;BME280;50709;52.648;4.764;2022-11-03T11:19:18;100367.13;;;18.33;57.98
64388;BME280;50709;52.648;4.764;2022-11-03T11:24:12;100348.91;;;18.25;58.14
64388;BME280;50709;52.648;4.764;2022-11-03T11:26:38;100356.84;;;18.25;57.10
64388;BME280;50709;52.648;4.764;2022-11-03T11:31:32;100362.91;;;18.27;57.51
64388;BME280;50709;52.648;4.764;2022-11-03T11:42:09;100339.09;;;18.29;57.87
64388;BME280;50709;52.648;4.764;2022-11-03T11:47:22;100339.81;;;18.32;57.07
64388;BME280;50709;52.648;4.764;2022-11-03T11:52:42;100283.13;;;18.18;57.20
64388;BME280;50709;52.648;4.764;2022-11-03T11:55:30;100302.88;;;18.31;57.12
64388;BME280;50709;52.648;4.764;2022-11-03T11:57:57;100291.94;;;18.18;56.76
64388;BME280;50709;52.648;4.764;2022-11-03T12:00:33;100276.13;;;18.16;56.83
64388;BME280;50709;52.648;4.764;2022-11-03T12:03:00;100251.53;;;18.14;56.54
64388;BME280;50709;52.648;4.764;2022-11-03T12:05:31;100276.44;;;18.31;56.67
64388;BME280;50709;52.648;4.764;2022-11-03T12:07:57;100277.19;;;18.35;56.69
64388;BME280;50709;52.648;4.764;2022-11-03T12:10:25;100234.03;;;18.12;56.75
64388;BME280;50709;52.648;4.764;2022-11-03T12:12:52;100262.53;;;18.26;56.69
64388;BME280;50709;52.648;4.764;2022-11-03T12:18:37;100241.94;;;18.34;56.24
64388;BME280;50709;52.648;4.764;2022-11-03T12:21:10;100225.25;;;18.33;56.49
64388;BME280;50709;52.648;4.764;2022-11-03T12:26:05;100235.88;;;18.32;57.00
64388;BME280;50709;52.648;4.764;2022-11-03T12:28:37;100226.66;;;18.42;56.49
64388;BME280;50709;52.648;4.764;2022-11-03T12:31:03;100215.72;;;18.29;56.50
64388;BME280;50709;52.648;4.764;2022-11-03T12:33:28;100217.78;;;18.43;56.82
64388;BME280;50709;52.648;4.764;2022-11-03T12:35:55;100219.22;;;18.52;56.49
64388;BME280;50709;52.648;4.764;2022-11-03T12:38:21;100192.84;;;18.28;57.07
64388;BME280;50709;52.648;4.764;2022-11-03T12:40:46;100211.47;;;18.47;56.83
64388;BME280;50709;52.648;4.764;2022-11-03T12:43:11;100214.84;;;18.51;56.71
64388;BME280;50709;52.648;4.764;2022-11-03T12:45:37;100198.75;;;18.35;56.56
64388;BME280;50709;52.648;4.764;2022-11-03T12:48:02;100194.13;;;18.40;56.19
64388;BME280;50709;52.648;4.764;2022-11-03T12:50:28;100164.66;;;18.29;56.63
64388;BME280;50709;52.648;4.764;2022-11-03T12:52:54;100189.66;;;18.42;56.51
64388;BME280;50709;52.648;4.764;2022-11-03T12:55:19;100181.84;;;18.39;56.86
64388;BME280;50709;52.648;4.764;2022-11-03T12:57:44;100180.84;;;18.42;56.75
64388;BME280;50709;52.648;4.764;2022-11-03T13:00:11;100184.38;;;18.42;56.57
64388;BME280;50709;52.648;4.764;2022-11-03T13:02:36;100183.31;;;18.46;56.48
64388;BME280;50709;52.648;4.764;2022-11-03T13:05:03;100187.94;;;18.41;56.68
64388;BME280;50709;52.648;4.764;2022-11-03T13:07:28;100173.91;;;18.39;56.88
64388;BME280;50709;52.648;4.764;2022-11-03T13:09:53;100181.53;;;18.47;56.89
64388;BME280;50709;52.648;4.764;2022-11-03T13:12:19;100173.47;;;18.50;56.87
64388;BME280;50709;52.648;4.764;2022-11-03T13:14:57;100168.00;;;18.55;57.11
64388;BME280;50709;52.648;4.764;2022-11-03T13:17:23;100162.34;;;18.42;56.75
64388;BME280;50709;52.648;4.764;2022-11-03T13:19:48;100157.56;;;18.29;56.66
64388;BME280;50709;52.648;4.764;2022-11-03T13:22:13;100171.41;;;18.36;56.65
64388;BME280;50709;52.648;4.764;2022-11-03T13:24:39;100167.56;;;18.43;56.83
64388;BME280;50709;52.648;4.764;2022-11-03T13:27:04;100160.06;;;18.55;56.93
64388;BME280;50709;52.648;4.764;2022-11-03T13:29:29;100150.41;;;18.54;57.16
64388;BME280;50709;52.648;4.764;2022-11-03T13:31:55;100152.97;;;18.55;56.93
64388;BME280;50709;52.648;4.764;2022-11-03T13:34:20;100156.69;;;18.51;56.47
64388;BME280;50709;52.648;4.764;2022-11-03T13:36:45;100145.84;;;18.57;56.90
64388;BME280;50709;52.648;4.764;2022-11-03T13:39:10;100122.97;;;18.56;56.98
64388;BME280;50709;52.648;4.764;2022-11-03T13:41:36;100098.81;;;18.43;56.39
64388;BME280;50709;52.648;4.764;2022-11-03T13:44:02;100112.47;;;18.55;56.73
64388;BME280;50709;52.648;4.764;2022-11-03T13:46:27;100120.19;;;18.59;56.56
64388;BME280;50709;52.648;4.764;2022-11-03T13:48:52;100118.53;;;18.57;56.81
64388;BME280;50709;52.648;4.764;2022-11-03T13:51:18;100114.97;;;18.58;56.81
64388;BME280;50709;52.648;4.764;2022-11-03T13:53:45;100084.91;;;18.60;56.42
64388;BME280;50709;52.648;4.764;2022-11-03T13:56:10;100100.69;;;18.62;56.94
64388;BME280;50709;52.648;4.764;2022-11-03T13:58:36;100082.78;;;18.69;56.94
64388;BME280;50709;52.648;4.764;2022-11-03T14:01:01;100094.69;;;18.79;56.89
64388;BME280;50709;52.648;4.764;2022-11-03T14:03:26;100094.78;;;18.76;57.03